createdAt,value
2022-10-05T00:00:56.150Z,6.50
2022-10-05T00:03:37.031Z,6.30
2022-10-05T00:06:05.220Z,5.72
2022-10-05T00:08:35.234Z,6.72
2022-10-05T00:11:02.349Z,6.47
2022-10-05T00:13:30.990Z,6.10
2022-10-05T00:16:21.079Z,5.97
2022-10-05T00:18:53.678Z,6.20
2022-10-05T00:21:29.166Z,5.72
2022-10-05T00:23:58.243Z,6.10
2022-10-05T00:26:32.044Z,6.05
2022-10-05T00:28:58.980Z,6.10
2022-10-05T00:31:32.941Z,5.82
2022-10-05T00:33:59.930Z,6.00
2022-10-05T00:36:26.853Z,5.75
2022-10-05T00:38:55.359Z,6.28
2022-10-05T00:41:22.207Z,5.90
2022-10-05T00:44:46.859Z,6.82
2022-10-05T00:47:54.201Z,7.10
2022-10-05T00:51:18.005Z,7.93
2022-10-05T00:54:45.660Z,7.00
2022-10-05T00:57:51.205Z,6.50
2022-10-05T01:00:21.958Z,6.90
2022-10-05T01:03:15.261Z,6.70
2022-10-05T01:06:08.473Z,6.65
2022-10-05T01:09:36.226Z,7.05
2022-10-05T01:12:52.805Z,6.97
2022-10-05T01:15:37.127Z,6.85
2022-10-05T01:18:33.238Z,6.93
2022-10-05T01:21:18.692Z,7.38
2022-10-05T01:24:31.992Z,6.90
2022-10-05T01:27:29.373Z,7.25
2022-10-05T01:30:19.751Z,7.10
2022-10-05T01:33:07.624Z,7.18
2022-10-05T01:35:48.340Z,7.68
2022-10-05T01:38:28.145Z,8.18
2022-10-05T01:41:06.854Z,8.50
2022-10-05T01:43:56.282Z,7.53
2022-10-05T01:46:49.138Z,7.55
2022-10-05T01:49:55.068Z,7.78
2022-10-05T01:52:54.268Z,7.25
2022-10-05T01:55:56.615Z,7.78
2022-10-05T01:58:43.233Z,7.35
2022-10-05T02:01:38.006Z,7.40
2022-10-05T02:04:35.647Z,7.43
2022-10-05T02:07:15.498Z,6.80
2022-10-05T02:10:00.727Z,7.80
2022-10-05T02:12:35.159Z,7.93
2022-10-05T02:15:13.761Z,7.40
2022-10-05T02:17:52.059Z,7.93
2022-10-05T02:20:31.928Z,7.88
2022-10-05T02:23:07.425Z,7.88
2022-10-05T02:25:40.588Z,7.70
2022-10-05T02:28:21.965Z,7.68
2022-10-05T02:31:04.457Z,7.43
2022-10-05T02:33:34.807Z,8.00
2022-10-05T02:36:13.096Z,7.70
2022-10-05T02:39:02.585Z,7.35
2022-10-05T02:42:08.592Z,8.15
2022-10-05T02:45:46.646Z,8.02
2022-10-05T02:48:42.534Z,7.75
2022-10-05T02:51:16.659Z,8.23
2022-10-05T02:54:02.346Z,7.93
2022-10-05T02:57:16.672Z,7.57
2022-10-05T02:59:58.004Z,8.15
2022-10-05T03:02:58.704Z,8.35
2022-10-05T03:05:43.749Z,8.65
2022-10-05T03:08:16.606Z,7.65
2022-10-05T03:11:04.802Z,8.00
2022-10-05T03:13:47.693Z,8.15
2022-10-05T03:16:47.871Z,8.48
2022-10-05T03:19:41.710Z,8.25
2022-10-05T03:22:33.758Z,8.77
2022-10-05T03:25:40.101Z,8.52
2022-10-05T03:28:42.338Z,8.75
2022-10-05T03:32:14.056Z,8.07
2022-10-05T03:35:02.477Z,8.98
2022-10-05T03:38:30.856Z,8.52
2022-10-05T03:41:23.996Z,8.32
2022-10-05T03:44:33.698Z,8.23
2022-10-05T03:47:39.492Z,9.45
2022-10-05T03:50:43.053Z,8.73
2022-10-05T03:53:44.000Z,8.70
2022-10-05T03:56:26.884Z,9.00
2022-10-05T03:59:33.710Z,8.52
2022-10-05T04:02:19.981Z,8.88
2022-10-05T04:04:57.230Z,8.75
2022-10-05T04:07:56.808Z,9.10
2022-10-05T04:10:34.026Z,8.35
2022-10-05T04:13:18.650Z,8.45
2022-10-05T04:16:29.758Z,8.80
2022-10-05T04:19:19.282Z,8.77
2022-10-05T04:22:10.422Z,9.23
2022-10-05T04:24:46.212Z,9.20
2022-10-05T04:27:30.590Z,10.10
2022-10-05T04:30:13.239Z,11.02
2022-10-05T04:32:55.619Z,10.85
2022-10-05T04:35:41.140Z,11.07
2022-10-05T04:39:00.819Z,10.65
2022-10-05T04:42:09.566Z,9.57
2022-10-05T04:45:19.879Z,9.85
2022-10-05T04:48:19.954Z,9.55
2022-10-05T04:51:25.588Z,10.00
2022-10-05T04:54:30.404Z,9.80
2022-10-05T04:57:11.054Z,9.60
2022-10-05T05:00:05.842Z,10.07
2022-10-05T05:02:38.358Z,10.15
2022-10-05T05:05:33.976Z,10.05
2022-10-05T05:08:31.516Z,10.93
2022-10-05T05:11:25.876Z,10.18
2022-10-05T05:14:34.242Z,11.10
2022-10-05T05:17:19.074Z,10.50
2022-10-05T05:20:25.939Z,11.00
2022-10-05T05:23:51.892Z,12.25
2022-10-05T05:27:02.167Z,15.23
2022-10-05T05:30:16.664Z,13.55
2022-10-05T05:33:35.855Z,12.82
2022-10-05T05:36:46.825Z,11.55
2022-10-05T05:40:10.049Z,12.88
2022-10-05T05:43:19.807Z,13.77
2022-10-05T05:46:09.480Z,11.93
2022-10-05T05:48:49.106Z,12.98
2022-10-05T05:51:45.385Z,11.85
2022-10-05T05:54:23.665Z,12.02
2022-10-05T05:57:35.906Z,11.13
2022-10-05T06:00:06.119Z,11.50
2022-10-05T06:02:59.415Z,11.15
2022-10-05T06:05:45.012Z,11.40
2022-10-05T06:08:43.270Z,11.85
2022-10-05T06:11:17.680Z,11.98
2022-10-05T06:13:46.354Z,13.50
2022-10-05T06:16:55.735Z,13.57
2022-10-05T06:19:25.764Z,11.77
2022-10-05T06:22:13.362Z,11.77
2022-10-05T06:25:11.828Z,11.75
2022-10-05T06:28:10.826Z,10.82
2022-10-05T06:30:54.327Z,10.45
2022-10-05T06:33:50.673Z,10.23
2022-10-05T06:36:29.741Z,10.30
2022-10-05T06:39:29.177Z,10.75
2022-10-05T06:42:39.429Z,10.68
2022-10-05T06:45:48.634Z,10.27
2022-10-05T06:48:24.371Z,10.10
2022-10-05T06:51:28.556Z,10.18
2022-10-05T06:54:05.608Z,9.73
2022-10-05T06:57:10.500Z,10.50
2022-10-05T07:00:09.562Z,10.27
2022-10-05T07:02:45.099Z,10.10
2022-10-05T07:05:39.020Z,10.13
2022-10-05T07:08:12.222Z,10.45
2022-10-05T07:11:17.204Z,10.07
2022-10-05T07:14:05.464Z,10.65
2022-10-05T07:16:52.677Z,9.48
2022-10-05T07:20:01.067Z,9.70
2022-10-05T07:23:02.165Z,9.15
2022-10-05T07:25:50.424Z,9.02
2022-10-05T07:28:47.959Z,9.05
2022-10-05T07:31:33.566Z,9.30
2022-10-05T07:34:15.781Z,9.98
2022-10-05T07:37:21.910Z,9.52
2022-10-05T07:40:15.207Z,8.57
2022-10-05T07:46:03.105Z,8.73
2022-10-05T07:49:05.602Z,9.15
2022-10-05T07:51:50.346Z,8.95
2022-10-05T07:54:37.918Z,9.13
2022-10-05T07:57:07.794Z,8.82
2022-10-05T08:00:03.954Z,9.48
2022-10-05T08:02:44.429Z,8.85
2022-10-05T08:05:28.420Z,8.82
2022-10-05T08:08:35.992Z,9.55
2022-10-05T08:11:15.581Z,9.02
2022-10-05T08:13:55.866Z,9.27
2022-10-05T08:16:28.284Z,9.38
2022-10-05T08:19:06.100Z,9.60
2022-10-05T08:21:48.060Z,9.80
2022-10-05T08:24:51.773Z,9.40
2022-10-05T08:27:49.584Z,9.55
2022-10-05T08:30:17.522Z,9.30
2022-10-05T08:32:55.704Z,8.55
2022-10-05T08:35:55.720Z,8.60
2022-10-05T08:38:33.369Z,8.55
2022-10-05T08:41:38.074Z,8.18
2022-10-05T08:44:37.689Z,8.45
2022-10-05T08:47:10.197Z,9.05
2022-10-05T08:50:00.948Z,7.55
2022-10-05T08:52:39.232Z,7.90
2022-10-05T08:55:33.740Z,7.00
2022-10-05T08:58:30.603Z,7.28
2022-10-05T09:01:15.404Z,7.07
2022-10-05T09:04:38.774Z,7.05
2022-10-05T09:07:27.216Z,7.65
2022-10-05T09:10:25.069Z,6.57
2022-10-05T09:13:24.892Z,6.93
2022-10-05T09:16:22.496Z,6.80
2022-10-05T09:19:44.523Z,6.80
2022-10-05T09:22:35.242Z,6.60
2022-10-05T09:25:25.442Z,6.30
2022-10-05T09:27:58.823Z,6.10
2022-10-05T09:30:47.850Z,6.65
2022-10-05T09:33:30.050Z,6.45
2022-10-05T09:36:35.509Z,6.53
2022-10-05T09:39:40.894Z,6.20
2022-10-05T09:42:41.722Z,6.22
2022-10-05T09:45:57.917Z,6.13
2022-10-05T09:49:15.265Z,5.90
2022-10-05T09:52:17.934Z,5.80
2022-10-05T09:55:10.987Z,5.70
2022-10-05T09:58:16.099Z,5.97
2022-10-05T10:01:15.942Z,6.55
2022-10-05T10:04:48.284Z,5.80
2022-10-05T10:07:46.368Z,5.85
2022-10-05T10:10:16.056Z,5.72
2022-10-05T10:13:20.571Z,5.80
2022-10-05T10:16:15.836Z,7.07
2022-10-05T10:19:06.526Z,6.70
2022-10-05T10:22:53.323Z,6.40
2022-10-05T10:25:55.830Z,5.80
2022-10-05T10:28:46.872Z,6.18
2022-10-05T10:32:11.605Z,5.65
2022-10-05T10:35:19.401Z,5.80
2022-10-05T10:38:15.922Z,5.75
2022-10-05T10:41:16.777Z,6.22
2022-10-05T10:44:11.093Z,5.28
2022-10-05T10:46:50.353Z,5.38
2022-10-05T10:49:36.218Z,5.97
2022-10-05T10:52:38.921Z,5.93
2022-10-05T10:55:51.871Z,6.05
2022-10-05T10:58:43.851Z,6.38
2022-10-05T11:01:34.272Z,6.60
2022-10-05T11:04:13.212Z,6.20
2022-10-05T11:06:42.982Z,6.18
2022-10-05T11:09:50.712Z,6.85
2022-10-05T11:12:54.441Z,5.43
2022-10-05T11:15:50.460Z,6.00
2022-10-05T11:18:46.787Z,5.85
2022-10-05T11:21:48.430Z,5.47
2022-10-05T11:24:38.693Z,5.97
2022-10-05T11:27:30.209Z,5.65
2022-10-05T11:30:27.984Z,5.93
2022-10-05T11:32:57.715Z,5.90
2022-10-05T11:35:49.272Z,6.03
2022-10-05T11:38:53.161Z,5.65
2022-10-05T11:44:39.493Z,6.00
2022-10-05T11:47:58.741Z,5.70
2022-10-05T11:51:18.695Z,5.47
2022-10-05T11:54:18.667Z,5.35
2022-10-05T11:57:07.853Z,5.18
2022-10-05T12:00:07.154Z,4.88
2022-10-05T12:02:55.679Z,5.38
2022-10-05T12:17:38.027Z,5.25
2022-10-05T12:20:33.462Z,5.22
2022-10-05T12:23:34.662Z,5.07
2022-10-05T12:26:11.736Z,12.52
2022-10-05T12:28:47.592Z,5.00
2022-10-05T12:31:30.093Z,5.20
2022-10-05T12:34:13.426Z,5.13
2022-10-05T12:37:17.084Z,5.15
2022-10-05T12:40:02.638Z,4.90
2022-10-05T12:42:50.320Z,5.60
2022-10-05T12:45:38.408Z,6.30
2022-10-05T12:48:34.184Z,5.60
2022-10-05T12:51:22.148Z,5.35
2022-10-05T12:54:06.457Z,5.50
2022-10-05T12:57:08.727Z,4.95
2022-10-05T12:59:35.588Z,4.65
2022-10-05T13:02:13.964Z,5.43
2022-10-05T13:05:10.270Z,5.47
2022-10-05T13:08:09.329Z,4.95
2022-10-05T13:10:44.766Z,5.75
2022-10-05T13:13:45.109Z,5.47
2022-10-05T13:16:15.494Z,6.68
2022-10-05T13:19:04.339Z,6.47
2022-10-05T13:21:46.241Z,6.00
2022-10-05T13:24:26.596Z,6.63
2022-10-05T13:27:14.150Z,6.57
2022-10-05T13:29:55.808Z,5.90
2022-10-05T13:32:29.575Z,5.22
2022-10-05T13:35:29.764Z,6.00
2022-10-05T13:38:44.358Z,7.95
2022-10-05T13:41:39.257Z,6.78
2022-10-05T13:44:37.939Z,5.75
2022-10-05T13:47:22.789Z,5.35
2022-10-05T13:50:07.178Z,5.60
2022-10-05T13:53:00.174Z,6.55
2022-10-05T13:56:03.872Z,13.05
2022-10-05T13:58:46.171Z,11.02
2022-10-05T14:01:46.681Z,7.57
2022-10-05T14:04:22.189Z,10.02
2022-10-05T14:06:49.632Z,12.40
2022-10-05T14:09:22.291Z,10.63
2022-10-05T14:12:14.599Z,13.27
2022-10-05T14:14:52.404Z,10.07
2022-10-05T14:17:42.540Z,9.52
2022-10-05T14:20:28.317Z,10.73
2022-10-05T14:23:05.281Z,7.25
2022-10-05T14:25:53.654Z,8.05
2022-10-05T14:28:30.569Z,8.75
2022-10-05T14:31:00.179Z,8.35
2022-10-05T14:33:33.728Z,9.18
2022-10-05T14:36:01.149Z,19.88
2022-10-05T14:38:52.564Z,14.60
2022-10-05T14:41:27.703Z,15.98
2022-10-05T14:44:16.236Z,16.63
2022-10-05T14:47:02.685Z,12.43
2022-10-05T14:49:37.294Z,14.45
2022-10-05T14:52:34.159Z,11.55
2022-10-05T14:55:44.894Z,12.10
2022-10-05T14:58:14.832Z,9.90
2022-10-05T15:01:16.649Z,10.20
2022-10-05T15:03:57.291Z,12.85
2022-10-05T15:07:28.013Z,12.55
2022-10-05T15:10:27.006Z,13.82
2022-10-05T15:13:09.210Z,10.30
2022-10-05T15:15:59.544Z,11.13
2022-10-05T15:19:06.264Z,13.15
2022-10-05T15:22:29.363Z,11.52
2022-10-05T15:25:15.350Z,15.30
2022-10-05T15:28:19.494Z,17.58
2022-10-05T15:31:23.611Z,15.52
2022-10-05T15:34:05.167Z,15.10
2022-10-05T15:36:43.026Z,17.67
2022-10-05T15:39:28.484Z,18.52
2022-10-05T15:42:02.337Z,16.02
2022-10-05T15:45:06.966Z,17.95
2022-10-05T15:48:39.367Z,18.02
2022-10-05T15:51:30.716Z,17.17
2022-10-05T15:54:32.781Z,16.25
2022-10-05T15:57:36.697Z,13.55
2022-10-05T16:03:14.156Z,20.13
2022-10-05T16:06:08.694Z,14.38
2022-10-05T16:09:07.509Z,10.05
2022-10-05T16:12:14.288Z,10.00
2022-10-05T16:15:06.506Z,10.68
2022-10-05T16:17:42.656Z,18.48
2022-10-05T16:20:48.178Z,43.88
2022-10-05T16:23:41.722Z,16.33
2022-10-05T16:29:17.505Z,26.08
2022-10-05T16:32:00.202Z,23.83
2022-10-05T16:34:56.349Z,30.58
2022-10-05T16:37:50.074Z,26.40
2022-10-05T16:40:36.020Z,29.85
2022-10-05T16:43:22.294Z,29.08
2022-10-05T16:46:03.306Z,28.00
2022-10-05T16:49:15.879Z,23.88
2022-10-05T16:52:01.407Z,23.08
2022-10-05T16:54:28.247Z,22.08
2022-10-05T16:57:19.097Z,19.83
2022-10-05T17:00:15.988Z,16.70
2022-10-05T17:03:04.912Z,13.40
2022-10-05T17:06:17.022Z,12.52
2022-10-05T17:09:23.247Z,15.70
2022-10-05T17:12:08.414Z,20.02
2022-10-05T17:15:13.556Z,21.77
2022-10-05T17:18:09.178Z,12.80
2022-10-05T17:20:42.575Z,16.40
2022-10-05T17:23:33.840Z,12.07
2022-10-05T17:26:38.588Z,15.02
2022-10-05T17:29:15.403Z,13.65
2022-10-05T17:32:11.234Z,17.65
2022-10-05T17:35:02.848Z,20.85
2022-10-05T17:38:09.168Z,18.83
2022-10-05T17:40:39.145Z,20.02
2022-10-05T17:43:15.444Z,19.20
2022-10-05T17:45:42.311Z,18.52
2022-10-05T17:48:11.760Z,21.02
2022-10-05T17:51:06.500Z,17.35
2022-10-05T17:54:03.820Z,15.63
2022-10-05T17:56:53.322Z,15.23
2022-10-05T17:59:58.664Z,14.13
2022-10-05T18:02:40.409Z,14.38
2022-10-05T18:05:14.526Z,12.98
2022-10-05T18:07:48.215Z,14.43
2022-10-05T18:10:32.548Z,16.27
2022-10-05T18:12:59.394Z,19.23
2022-10-05T18:15:26.365Z,20.10
2022-10-05T18:17:57.484Z,16.08
2022-10-05T18:20:25.533Z,17.50
2022-10-05T18:23:01.615Z,18.00
2022-10-05T18:25:49.611Z,19.50
2022-10-05T18:28:39.245Z,18.02
2022-10-05T18:31:30.545Z,19.40
2022-10-05T18:34:09.088Z,17.15
2022-10-05T18:36:45.344Z,15.80
2022-10-05T18:40:05.791Z,13.68
2022-10-05T18:43:14.689Z,14.13
2022-10-05T18:46:15.248Z,12.13
2022-10-05T18:49:18.874Z,13.18
2022-10-05T18:52:21.268Z,14.45
2022-10-05T19:07:41.157Z,12.32
2022-10-05T19:10:25.806Z,12.98
2022-10-05T19:13:23.841Z,11.15
2022-10-05T19:16:18.883Z,10.70
2022-10-05T19:19:43.792Z,15.15
2022-10-05T19:22:32.265Z,14.10
2022-10-05T19:25:16.703Z,13.63
2022-10-05T19:28:13.712Z,23.83
2022-10-05T19:31:17.876Z,18.27
2022-10-05T19:34:23.694Z,16.73
2022-10-05T19:37:14.119Z,16.30
2022-10-05T19:39:55.535Z,13.02
2022-10-05T19:42:53.106Z,12.55
2022-10-05T19:45:27.195Z,15.07
2022-10-05T19:48:30.536Z,19.23
2022-10-05T19:51:03.486Z,15.80
2022-10-05T19:53:37.139Z,16.77
2022-10-05T19:56:35.348Z,14.35
2022-10-05T19:59:20.278Z,17.33
2022-10-05T20:01:53.779Z,17.73
2022-10-05T20:04:36.550Z,17.90
2022-10-05T20:07:04.107Z,13.98
2022-10-05T20:10:00.664Z,14.50
2022-10-05T20:12:51.460Z,14.07
2022-10-05T20:15:46.068Z,13.50
2022-10-05T20:19:06.733Z,14.43
2022-10-05T20:21:47.430Z,17.42
2022-10-05T20:24:17.935Z,16.10
2022-10-05T20:27:05.175Z,20.17
2022-10-05T20:29:43.928Z,20.88
2022-10-05T20:32:18.068Z,22.48
2022-10-05T20:34:49.352Z,23.35
2022-10-05T20:37:18.929Z,27.33
2022-10-05T20:39:48.065Z,19.52
2022-10-05T20:42:15.176Z,17.23
2022-10-05T20:44:44.525Z,17.70
2022-10-05T20:47:12.452Z,19.92
2022-10-05T20:49:44.788Z,20.05
2022-10-05T20:52:15.013Z,17.00
2022-10-05T20:54:42.316Z,15.27
2022-10-05T20:57:09.931Z,17.52
2022-10-05T20:59:37.459Z,20.25
2022-10-05T21:02:05.701Z,18.85
2022-10-05T21:04:40.841Z,20.33
2022-10-05T21:07:08.915Z,23.75
2022-10-05T21:09:38.390Z,22.95
2022-10-05T21:12:05.702Z,18.15
2022-10-05T21:14:34.399Z,17.23
2022-10-05T21:17:02.103Z,18.88
2022-10-05T21:19:29.780Z,14.43
2022-10-05T21:22:02.512Z,14.25
2022-10-05T21:24:29.699Z,16.05
2022-10-05T21:26:57.565Z,15.55
2022-10-05T21:29:24.776Z,16.02
2022-10-05T21:31:52.063Z,15.55
2022-10-05T21:34:19.205Z,14.32
2022-10-05T21:36:46.214Z,14.70
2022-10-05T21:39:13.172Z,13.98
2022-10-05T21:41:40.164Z,14.48
2022-10-05T21:44:07.102Z,14.48
2022-10-05T21:46:38.078Z,13.73
2022-10-05T21:49:08.008Z,13.38
2022-10-05T21:51:36.546Z,13.20
2022-10-05T21:54:11.533Z,12.38
2022-10-05T21:56:46.298Z,12.73
2022-10-05T21:59:19.231Z,12.35
2022-10-05T22:01:46.195Z,13.23
2022-10-05T22:04:14.966Z,13.10
2022-10-05T22:06:41.971Z,12.65
2022-10-05T22:09:09.275Z,12.85
2022-10-05T22:11:36.467Z,13.35
2022-10-05T22:14:03.826Z,13.30
2022-10-05T22:16:36.597Z,14.13
2022-10-05T22:19:10.759Z,12.65
2022-10-05T22:21:41.554Z,15.23
2022-10-05T22:24:11.499Z,13.82
2022-10-05T22:26:41.892Z,14.32
2022-10-05T22:29:09.699Z,14.13
2022-10-05T22:31:37.671Z,12.88
2022-10-05T22:34:04.951Z,11.52
2022-10-05T22:36:35.502Z,12.10
2022-10-05T22:39:02.700Z,11.45
2022-10-05T22:41:29.612Z,11.00
2022-10-05T22:43:56.503Z,11.50
2022-10-05T22:46:23.482Z,11.93
2022-10-05T22:48:50.462Z,11.30
2022-10-05T22:51:17.495Z,11.48
2022-10-05T22:53:44.406Z,10.80
2022-10-05T22:56:14.021Z,11.68
2022-10-05T22:58:42.603Z,11.25
2022-10-05T23:01:16.395Z,11.05
2022-10-05T23:03:44.340Z,11.40
2022-10-05T23:06:18.174Z,11.00
2022-10-05T23:08:46.748Z,11.35
2022-10-05T23:11:17.504Z,11.00
2022-10-05T23:13:45.094Z,11.20
2022-10-05T23:16:18.193Z,11.27
2022-10-05T23:18:49.061Z,9.85
2022-10-05T23:21:17.166Z,9.65
2022-10-05T23:23:48.999Z,9.57
2022-10-05T23:26:18.708Z,10.48
2022-10-05T23:28:49.209Z,10.85
2022-10-05T23:31:21.013Z,10.98
2022-10-05T23:33:48.469Z,11.43
2022-10-05T23:36:21.926Z,10.02
2022-10-05T23:38:49.431Z,10.52
2022-10-05T23:41:17.561Z,10.57
2022-10-05T23:43:44.582Z,11.45
2022-10-05T23:46:13.407Z,11.43
2022-10-05T23:48:40.696Z,10.32
2022-10-05T23:51:11.008Z,11.15
2022-10-05T23:53:38.217Z,10.63
2022-10-05T23:56:05.795Z,11.25
2022-10-05T23:58:32.938Z,11.15
